Sheridan, WY (82801)

9:04 AM MDT on August 29, 2015 (GMT -0600)
North Airport Area | | Change Station
CLOSE
Current Station
Personal Weather Station
Location: Sheridan, WY
Elevation: 3917 ft
Nearby Weather Stations

Elev 3917 ft 44.78 °N, 106.97 °W | Updated 31 seconds ago

Clear
Clear
64.9 °F
Feels Like 64.9 °F
N
0.0
Wind Variable Wind from North

Today
High -- | Low -- °F
--% Chance of Precip.
Yesterday
High -- | Low -- °F
Precip. -- in
6:26 AM 7:50 PM
Full, 100% visible
Pressure 29.96 in
Visibility 8.0 miles
Clouds Clear
Dew Point 48 °F
Humidity 54%
Rainfall 0.00 in
Snow Depth Not available.
UV 2 out of 12
Pollen 9.60 out of 12
Air Quality Not available.
Flu Activity Not available.
METAR KSHR 291453Z AUTO 00000KT 8SM CLR 21/07 A3004 RMK AO2 SLP143 T02060072 50002
Pressure 29.96 in
Visibility 8.0 miles
Clouds Clear
Dew Point 48 °F
Humidity 54%
Rainfall 0.00 in
Snow Depth Not available.
UV 2 out of 12
Pollen 9.60 out of 12
Air Quality Not available.
Flu Activity Not available.
METAR KSHR 291453Z AUTO 00000KT 8SM CLR 21/07 A3004 RMK AO2 SLP143 T02060072 50002

10-Day Weather Forecast

×

Almanac

Astronomy

Aug. 29, 2015 Rise Set
Actual Time
Civil Twilight
Nautical Twilight
Astronomical Twilight
Moon
Length of Visible Light
Length of Day
Tomorrow will be .
, % of the Moon is Illuminated

Today's Extremes

State Highs State Lows

Community

WunderPhotos

Upload Photos

1,850,684 photos uploaded!

WunderBlogs® & News

Nearby

Air Quality

  Air Quality AQ Index Pollutant
Not available.

Snow Depth

Station Depth Elevation

Earthquake Activity

City Distance Mag. Time & Date
Minimum magnitude displayed is 2.5.

Coastal Water Temperatures

Place Temperature

Stations

Nearby Weather Stations

Station Location Temp. Windchill Dew Point Humidity Wind Precip. Elev Updated Type